Humberston, United Kingdom
Current Conditions -  °F | °C
As of 7:50 AM on Saturday 20 Dec 2014 (Local Time) from EGXS Reporting Station
Broken Clouds Broken Clouds  
Wind Chill:   Ceiling: 2600
Heat Index:   Visibility: 6mi
Dew Point:   Wind: 13mph
Humidity: 76%   Direction: 230°SW
Pressure: 30.03"   Gusts: NA
Location:  53.53°N, 0.02°W
Report Text: EGXS 200750Z AUTO 23011KT 9999 // BKN026/// 07/03 Q1017
Loading
Personal Weather Stations






























Interactive Weather Map New forecast layout! Learn more

10-Day Weather Forecast

Advertisements
Track Severe Weather on mobile